sensor_id;sensor_type;location;lat;lon;timestamp;P1;durP1;ratioP1;P2;durP2;ratioP2
50319;SDS011;36226;53.464;9.852;2023-02-01T00:56:58;25.67;;;3.50;;
50319;SDS011;36226;53.464;9.852;2023-02-01T04:41:40;10.90;;;2.22;;
50319;SDS011;36226;53.464;9.852;2023-02-01T06:41:12;9.38;;;1.77;;
50319;SDS011;36226;53.464;9.852;2023-02-01T06:50:35;9.70;;;1.20;;
50319;SDS011;36226;53.464;9.852;2023-02-01T06:53:37;6.90;;;1.67;;
50319;SDS011;36226;53.464;9.852;2023-02-01T06:56:12;7.00;;;1.65;;
50319;SDS011;36226;53.464;9.852;2023-02-01T06:59:48;10.50;;;1.33;;
50319;SDS011;36226;53.464;9.852;2023-02-01T07:35:52;19.45;;;2.15;;
50319;SDS011;36226;53.464;9.852;2023-02-01T07:38:18;18.45;;;2.47;;
50319;SDS011;36226;53.464;9.852;2023-02-01T07:40:44;15.30;;;2.53;;
50319;SDS011;36226;53.464;9.852;2023-02-01T07:43:09;22.88;;;2.72;;
50319;SDS011;36226;53.464;9.852;2023-02-01T07:45:35;24.88;;;2.70;;
50319;SDS011;36226;53.464;9.852;2023-02-01T07:48:01;15.18;;;2.10;;
50319;SDS011;36226;53.464;9.852;2023-02-01T07:50:26;17.08;;;2.67;;
50319;SDS011;36226;53.464;9.852;2023-02-01T07:52:52;22.08;;;2.55;;
50319;SDS011;36226;53.464;9.852;2023-02-01T07:55:18;23.65;;;3.13;;
50319;SDS011;36226;53.464;9.852;2023-02-01T07:57:44;19.08;;;2.65;;
50319;SDS011;36226;53.464;9.852;2023-02-01T08:00:09;14.95;;;3.10;;
50319;SDS011;36226;53.464;9.852;2023-02-01T08:02:54;22.48;;;3.10;;
50319;SDS011;36226;53.464;9.852;2023-02-01T08:05:19;20.35;;;3.08;;
50319;SDS011;36226;53.464;9.852;2023-02-01T08:07:48;25.60;;;3.20;;
50319;SDS011;36226;53.464;9.852;2023-02-01T08:10:14;34.08;;;3.95;;
50319;SDS011;36226;53.464;9.852;2023-02-01T08:12:40;20.67;;;2.75;;
50319;SDS011;36226;53.464;9.852;2023-02-01T08:15:06;24.75;;;3.25;;
50319;SDS011;36226;53.464;9.852;2023-02-01T08:17:31;18.42;;;3.50;;
50319;SDS011;36226;53.464;9.852;2023-02-01T08:19:57;29.58;;;5.18;;
50319;SDS011;36226;53.464;9.852;2023-02-01T08:22:22;21.60;;;3.80;;
50319;SDS011;36226;53.464;9.852;2023-02-01T08:24:48;22.80;;;4.50;;
50319;SDS011;36226;53.464;9.852;2023-02-01T08:27:13;22.10;;;5.55;;
50319;SDS011;36226;53.464;9.852;2023-02-01T08:29:39;23.05;;;3.10;;
50319;SDS011;36226;53.464;9.852;2023-02-01T08:34:39;23.27;;;3.97;;
50319;SDS011;36226;53.464;9.852;2023-02-01T08:37:05;23.85;;;4.72;;
50319;SDS011;36226;53.464;9.852;2023-02-01T08:39:32;27.80;;;4.45;;
50319;SDS011;36226;53.464;9.852;2023-02-01T08:41:57;23.90;;;3.90;;
50319;SDS011;36226;53.464;9.852;2023-02-01T08:44:41;22.10;;;3.03;;
50319;SDS011;36226;53.464;9.852;2023-02-01T08:47:06;17.98;;;2.90;;
50319;SDS011;36226;53.464;9.852;2023-02-01T08:49:32;19.77;;;3.45;;
50319;SDS011;36226;53.464;9.852;2023-02-01T08:51:57;20.33;;;2.95;;
50319;SDS011;36226;53.464;9.852;2023-02-01T08:54:22;22.58;;;3.65;;
50319;SDS011;36226;53.464;9.852;2023-02-01T08:56:48;27.05;;;3.13;;
50319;SDS011;36226;53.464;9.852;2023-02-01T08:59:13;19.13;;;3.33;;
50319;SDS011;36226;53.464;9.852;2023-02-01T09:01:38;23.42;;;4.25;;
50319;SDS011;36226;53.464;9.852;2023-02-01T09:04:04;17.95;;;3.28;;
50319;SDS011;36226;53.464;9.852;2023-02-01T09:06:29;19.95;;;3.08;;
50319;SDS011;36226;53.464;9.852;2023-02-01T09:08:55;20.63;;;2.95;;
50319;SDS011;36226;53.464;9.852;2023-02-01T09:11:20;15.95;;;2.72;;
50319;SDS011;36226;53.464;9.852;2023-02-01T09:13:46;20.55;;;3.50;;
50319;SDS011;36226;53.464;9.852;2023-02-01T09:16:12;21.92;;;3.63;;
50319;SDS011;36226;53.464;9.852;2023-02-01T09:18:37;22.15;;;3.85;;
50319;SDS011;36226;53.464;9.852;2023-02-01T09:21:06;19.33;;;3.03;;
50319;SDS011;36226;53.464;9.852;2023-02-01T09:23:32;15.82;;;2.30;;
50319;SDS011;36226;53.464;9.852;2023-02-01T09:25:59;15.88;;;2.55;;
50319;SDS011;36226;53.464;9.852;2023-02-01T09:28:25;19.23;;;2.50;;
50319;SDS011;36226;53.464;9.852;2023-02-01T09:30:54;20.70;;;2.92;;
50319;SDS011;36226;53.464;9.852;2023-02-01T09:33:20;19.98;;;2.72;;
50319;SDS011;36226;53.464;9.852;2023-02-01T09:35:46;19.45;;;3.05;;
50319;SDS011;36226;53.464;9.852;2023-02-01T09:38:11;20.55;;;3.08;;
50319;SDS011;36226;53.464;9.852;2023-02-01T09:40:39;15.57;;;2.35;;
50319;SDS011;36226;53.464;9.852;2023-02-01T09:45:48;17.63;;;2.35;;
50319;SDS011;36226;53.464;9.852;2023-02-01T09:48:21;19.13;;;2.80;;
50319;SDS011;36226;53.464;9.852;2023-02-01T09:50:55;17.98;;;2.90;;
50319;SDS011;36226;53.464;9.852;2023-02-01T09:53:35;18.27;;;2.60;;
50319;SDS011;36226;53.464;9.852;2023-02-01T09:56:07;16.58;;;2.58;;
50319;SDS011;36226;53.464;9.852;2023-02-01T09:59:01;15.45;;;2.50;;
50319;SDS011;36226;53.464;9.852;2023-02-01T10:01:33;18.63;;;3.20;;
50319;SDS011;36226;53.464;9.852;2023-02-01T10:04:01;17.30;;;2.95;;
50319;SDS011;36226;53.464;9.852;2023-02-01T10:15:20;20.45;;;3.10;;
50319;SDS011;36226;53.464;9.852;2023-02-01T10:20:52;20.15;;;2.88;;
50319;SDS011;36226;53.464;9.852;2023-02-01T10:26:32;19.25;;;3.33;;
50319;SDS011;36226;53.464;9.852;2023-02-01T10:29:00;22.92;;;3.30;;
50319;SDS011;36226;53.464;9.852;2023-02-01T10:31:31;14.02;;;3.25;;
50319;SDS011;36226;53.464;9.852;2023-02-01T10:33:59;22.83;;;3.42;;
50319;SDS011;36226;53.464;9.852;2023-02-01T10:36:32;11.60;;;2.17;;
50319;SDS011;36226;53.464;9.852;2023-02-01T10:39:02;25.45;;;3.35;;
50319;SDS011;36226;53.464;9.852;2023-02-01T10:41:38;21.00;;;3.60;;
50319;SDS011;36226;53.464;9.852;2023-02-01T10:44:11;11.45;;;1.95;;
50319;SDS011;36226;53.464;9.852;2023-02-01T10:46:39;23.60;;;4.00;;
50319;SDS011;36226;53.464;9.852;2023-02-01T10:49:05;29.23;;;5.20;;
50319;SDS011;36226;53.464;9.852;2023-02-01T10:54:20;14.55;;;2.55;;
50319;SDS011;36226;53.464;9.852;2023-02-01T10:56:48;23.55;;;3.60;;
50319;SDS011;36226;53.464;9.852;2023-02-01T10:59:18;19.55;;;3.17;;
50319;SDS011;36226;53.464;9.852;2023-02-01T11:01:46;28.08;;;6.85;;
50319;SDS011;36226;53.464;9.852;2023-02-01T11:04:14;16.95;;;2.45;;
50319;SDS011;36226;53.464;9.852;2023-02-01T11:07:04;16.17;;;2.67;;
50319;SDS011;36226;53.464;9.852;2023-02-01T11:09:32;18.58;;;3.50;;
50319;SDS011;36226;53.464;9.852;2023-02-01T11:12:00;19.13;;;2.72;;
50319;SDS011;36226;53.464;9.852;2023-02-01T11:14:27;17.08;;;2.30;;
50319;SDS011;36226;53.464;9.852;2023-02-01T11:17:00;21.85;;;3.72;;
50319;SDS011;36226;53.464;9.852;2023-02-01T11:19:27;19.23;;;3.22;;
50319;SDS011;36226;53.464;9.852;2023-02-01T11:21:56;17.30;;;3.95;;
50319;SDS011;36226;53.464;9.852;2023-02-01T11:24:24;21.58;;;4.15;;
50319;SDS011;36226;53.464;9.852;2023-02-01T11:26:50;24.52;;;3.28;;
50319;SDS011;36226;53.464;9.852;2023-02-01T11:29:18;21.38;;;3.58;;
50319;SDS011;36226;53.464;9.852;2023-02-01T11:31:54;22.00;;;2.42;;
50319;SDS011;36226;53.464;9.852;2023-02-01T11:34:22;22.15;;;2.97;;
50319;SDS011;36226;53.464;9.852;2023-02-01T11:36:51;17.80;;;2.55;;
50319;SDS011;36226;53.464;9.852;2023-02-01T11:39:24;13.57;;;2.45;;
50319;SDS011;36226;53.464;9.852;2023-02-01T11:44:40;19.17;;;3.65;;
50319;SDS011;36226;53.464;9.852;2023-02-01T11:47:18;12.60;;;2.60;;
50319;SDS011;36226;53.464;9.852;2023-02-01T11:49:47;17.95;;;3.75;;
50319;SDS011;36226;53.464;9.852;2023-02-01T11:52:26;10.93;;;1.48;;
50319;SDS011;36226;53.464;9.852;2023-02-01T12:30:28;4.97;;;1.23;;
50319;SDS011;36226;53.464;9.852;2023-02-01T12:33:18;3.67;;;1.10;;
50319;SDS011;36226;53.464;9.852;2023-02-01T12:46:48;3.83;;;1.65;;
50319;SDS011;36226;53.464;9.852;2023-02-01T12:49:17;3.38;;;1.20;;
50319;SDS011;36226;53.464;9.852;2023-02-01T12:52:04;6.13;;;2.47;;
50319;SDS011;36226;53.464;9.852;2023-02-01T12:54:36;5.70;;;2.25;;
50319;SDS011;36226;53.464;9.852;2023-02-01T12:57:06;8.80;;;3.95;;
50319;SDS011;36226;53.464;9.852;2023-02-01T12:59:59;3.45;;;2.20;;
50319;SDS011;36226;53.464;9.852;2023-02-01T13:02:52;2.22;;;0.68;;
50319;SDS011;36226;53.464;9.852;2023-02-01T13:05:27;3.03;;;1.80;;
50319;SDS011;36226;53.464;9.852;2023-02-01T13:08:04;2.97;;;1.25;;
50319;SDS011;36226;53.464;9.852;2023-02-01T13:10:45;3.40;;;1.45;;
50319;SDS011;36226;53.464;9.852;2023-02-01T13:15:58;2.35;;;0.40;;
50319;SDS011;36226;53.464;9.852;2023-02-01T13:21:05;0.20;;;0.20;;
50319;SDS011;36226;53.464;9.852;2023-02-01T13:23:38;4.57;;;1.70;;
50319;SDS011;36226;53.464;9.852;2023-02-01T13:26:05;2.50;;;0.50;;
50319;SDS011;36226;53.464;9.852;2023-02-01T13:28:50;0.80;;;0.43;;
50319;SDS011;36226;53.464;9.852;2023-02-01T13:37:09;2.33;;;1.17;;
50319;SDS011;36226;53.464;9.852;2023-02-01T13:42:26;2.17;;;0.80;;
50319;SDS011;36226;53.464;9.852;2023-02-01T13:44:55;7.07;;;3.08;;
50319;SDS011;36226;53.464;9.852;2023-02-01T13:55:24;7.15;;;2.30;;
50319;SDS011;36226;53.464;9.852;2023-02-01T13:57:48;3.08;;;1.20;;
50319;SDS011;36226;53.464;9.852;2023-02-01T14:29:35;10.32;;;2.72;;
50319;SDS011;36226;53.464;9.852;2023-02-01T14:50:46;2.85;;;0.88;;
50319;SDS011;36226;53.464;9.852;2023-02-01T14:53:17;5.88;;;0.93;;
50319;SDS011;36226;53.464;9.852;2023-02-01T14:58:15;9.07;;;1.20;;
50319;SDS011;36226;53.464;9.852;2023-02-01T15:01:02;6.97;;;1.33;;
50319;SDS011;36226;53.464;9.852;2023-02-01T15:06:41;8.93;;;1.27;;
50319;SDS011;36226;53.464;9.852;2023-02-01T15:09:13;5.68;;;0.90;;
50319;SDS011;36226;53.464;9.852;2023-02-01T15:17:39;6.07;;;1.83;;
50319;SDS011;36226;53.464;9.852;2023-02-01T15:20:15;13.90;;;2.08;;
50319;SDS011;36226;53.464;9.852;2023-02-01T15:22:42;10.68;;;2.33;;
50319;SDS011;36226;53.464;9.852;2023-02-01T15:25:19;9.30;;;1.83;;
50319;SDS011;36226;53.464;9.852;2023-02-01T15:27:49;7.97;;;1.27;;
50319;SDS011;36226;53.464;9.852;2023-02-01T15:30:19;6.70;;;1.55;;
50319;SDS011;36226;53.464;9.852;2023-02-01T15:32:45;10.75;;;1.20;;
50319;SDS011;36226;53.464;9.852;2023-02-01T15:35:44;13.13;;;1.92;;
50319;SDS011;36226;53.464;9.852;2023-02-01T15:46:36;9.95;;;1.88;;
50319;SDS011;36226;53.464;9.852;2023-02-01T15:49:04;12.20;;;2.30;;
50319;SDS011;36226;53.464;9.852;2023-02-01T15:51:30;14.88;;;1.98;;
50319;SDS011;36226;53.464;9.852;2023-02-01T15:54:00;12.02;;;2.33;;
50319;SDS011;36226;53.464;9.852;2023-02-01T15:56:28;14.60;;;2.08;;
50319;SDS011;36226;53.464;9.852;2023-02-01T15:58:59;12.30;;;2.53;;
50319;SDS011;36226;53.464;9.852;2023-02-01T16:01:25;15.50;;;1.95;;
50319;SDS011;36226;53.464;9.852;2023-02-01T16:04:01;13.57;;;2.03;;
50319;SDS011;36226;53.464;9.852;2023-02-01T16:06:48;17.98;;;1.77;;
50319;SDS011;36226;53.464;9.852;2023-02-01T16:09:14;19.20;;;2.55;;
50319;SDS011;36226;53.464;9.852;2023-02-01T16:12:03;23.33;;;5.03;;
50319;SDS011;36226;53.464;9.852;2023-02-01T16:14:27;23.48;;;2.25;;
50319;SDS011;36226;53.464;9.852;2023-02-01T16:16:54;19.23;;;2.45;;
50319;SDS011;36226;53.464;9.852;2023-02-01T16:19:20;21.90;;;3.20;;
50319;SDS011;36226;53.464;9.852;2023-02-01T16:21:48;14.98;;;2.47;;
50319;SDS011;36226;53.464;9.852;2023-02-01T16:24:13;16.08;;;3.33;;
50319;SDS011;36226;53.464;9.852;2023-02-01T16:26:39;29.83;;;3.60;;
50319;SDS011;36226;53.464;9.852;2023-02-01T16:29:04;22.60;;;3.88;;
50319;SDS011;36226;53.464;9.852;2023-02-01T16:31:32;29.48;;;4.75;;
50319;SDS011;36226;53.464;9.852;2023-02-01T16:34:02;25.10;;;4.82;;
50319;SDS011;36226;53.464;9.852;2023-02-01T16:36:27;21.35;;;3.78;;
50319;SDS011;36226;53.464;9.852;2023-02-01T16:38:53;21.95;;;3.47;;
50319;SDS011;36226;53.464;9.852;2023-02-01T16:41:19;30.48;;;4.57;;
50319;SDS011;36226;53.464;9.852;2023-02-01T16:43:49;26.40;;;3.53;;
50319;SDS011;36226;53.464;9.852;2023-02-01T16:46:16;23.50;;;4.53;;
50319;SDS011;36226;53.464;9.852;2023-02-01T16:48:44;21.90;;;3.22;;
50319;SDS011;36226;53.464;9.852;2023-02-01T16:51:12;24.95;;;3.25;;
50319;SDS011;36226;53.464;9.852;2023-02-01T16:53:39;23.55;;;4.55;;
50319;SDS011;36226;53.464;9.852;2023-02-01T16:56:10;23.75;;;3.85;;
50319;SDS011;36226;53.464;9.852;2023-02-01T16:58:38;30.63;;;3.88;;
50319;SDS011;36226;53.464;9.852;2023-02-01T17:01:06;24.83;;;4.35;;
50319;SDS011;36226;53.464;9.852;2023-02-01T17:03:31;23.50;;;3.22;;
50319;SDS011;36226;53.464;9.852;2023-02-01T17:05:57;20.77;;;3.78;;
50319;SDS011;36226;53.464;9.852;2023-02-01T17:08:29;25.30;;;3.40;;
50319;SDS011;36226;53.464;9.852;2023-02-01T17:10:57;28.43;;;4.27;;
50319;SDS011;36226;53.464;9.852;2023-02-01T17:13:22;23.13;;;3.15;;
50319;SDS011;36226;53.464;9.852;2023-02-01T17:15:55;26.15;;;3.70;;
50319;SDS011;36226;53.464;9.852;2023-02-01T17:18:26;21.83;;;3.92;;
50319;SDS011;36226;53.464;9.852;2023-02-01T17:20:56;38.67;;;8.30;;
50319;SDS011;36226;53.464;9.852;2023-02-01T17:23:22;34.00;;;4.88;;
50319;SDS011;36226;53.464;9.852;2023-02-01T17:25:47;26.85;;;4.13;;
50319;SDS011;36226;53.464;9.852;2023-02-01T17:28:13;23.95;;;3.75;;
50319;SDS011;36226;53.464;9.852;2023-02-01T17:30:39;17.33;;;2.63;;
50319;SDS011;36226;53.464;9.852;2023-02-01T17:33:08;18.77;;;2.80;;
50319;SDS011;36226;53.464;9.852;2023-02-01T17:35:42;18.63;;;2.85;;
50319;SDS011;36226;53.464;9.852;2023-02-01T17:38:10;16.60;;;2.95;;
50319;SDS011;36226;53.464;9.852;2023-02-01T17:40:36;17.80;;;3.22;;
50319;SDS011;36226;53.464;9.852;2023-02-01T17:43:02;19.75;;;4.43;;
50319;SDS011;36226;53.464;9.852;2023-02-01T17:45:41;20.13;;;2.85;;
50319;SDS011;36226;53.464;9.852;2023-02-01T17:48:15;28.40;;;4.50;;
50319;SDS011;36226;53.464;9.852;2023-02-01T17:50:41;26.55;;;4.80;;
50319;SDS011;36226;53.464;9.852;2023-02-01T17:53:06;22.08;;;3.00;;
50319;SDS011;36226;53.464;9.852;2023-02-01T17:55:34;20.35;;;3.67;;
50319;SDS011;36226;53.464;9.852;2023-02-01T17:58:00;23.02;;;3.70;;
50319;SDS011;36226;53.464;9.852;2023-02-01T18:00:26;17.48;;;3.05;;
50319;SDS011;36226;53.464;9.852;2023-02-01T18:02:51;24.48;;;3.13;;
50319;SDS011;36226;53.464;9.852;2023-02-01T18:05:25;18.40;;;2.78;;
50319;SDS011;36226;53.464;9.852;2023-02-01T18:07:52;15.98;;;2.53;;
50319;SDS011;36226;53.464;9.852;2023-02-01T18:10:18;23.90;;;3.35;;
50319;SDS011;36226;53.464;9.852;2023-02-01T18:12:43;26.02;;;2.55;;
50319;SDS011;36226;53.464;9.852;2023-02-01T18:17:42;19.38;;;3.15;;
50319;SDS011;36226;53.464;9.852;2023-02-01T18:20:08;17.30;;;3.08;;
50319;SDS011;36226;53.464;9.852;2023-02-01T18:22:39;23.70;;;3.92;;
50319;SDS011;36226;53.464;9.852;2023-02-01T18:25:24;23.58;;;3.22;;
50319;SDS011;36226;53.464;9.852;2023-02-01T18:27:51;20.45;;;3.90;;
50319;SDS011;36226;53.464;9.852;2023-02-01T18:30:18;17.13;;;2.80;;
50319;SDS011;36226;53.464;9.852;2023-02-01T18:32:49;25.35;;;4.05;;
50319;SDS011;36226;53.464;9.852;2023-02-01T18:37:50;18.83;;;3.35;;
50319;SDS011;36226;53.464;9.852;2023-02-01T18:42:43;23.27;;;3.55;;
50319;SDS011;36226;53.464;9.852;2023-02-01T18:47:59;18.88;;;3.50;;
50319;SDS011;36226;53.464;9.852;2023-02-01T18:50:26;29.15;;;3.15;;
50319;SDS011;36226;53.464;9.852;2023-02-01T18:52:53;30.63;;;3.85;;
50319;SDS011;36226;53.464;9.852;2023-02-01T18:55:20;16.90;;;2.85;;
50319;SDS011;36226;53.464;9.852;2023-02-01T18:57:47;24.95;;;3.40;;
50319;SDS011;36226;53.464;9.852;2023-02-01T19:00:13;24.73;;;3.85;;
50319;SDS011;36226;53.464;9.852;2023-02-01T19:02:40;26.45;;;3.53;;
50319;SDS011;36226;53.464;9.852;2023-02-01T19:05:06;20.00;;;3.33;;
50319;SDS011;36226;53.464;9.852;2023-02-01T19:07:32;24.05;;;3.40;;
50319;SDS011;36226;53.464;9.852;2023-02-01T19:10:02;21.70;;;3.55;;
50319;SDS011;36226;53.464;9.852;2023-02-01T19:12:30;20.42;;;2.85;;
50319;SDS011;36226;53.464;9.852;2023-02-01T19:14:57;21.13;;;4.05;;
50319;SDS011;36226;53.464;9.852;2023-02-01T19:17:23;18.08;;;2.75;;
50319;SDS011;36226;53.464;9.852;2023-02-01T19:19:48;24.15;;;3.13;;
50319;SDS011;36226;53.464;9.852;2023-02-01T19:22:14;27.88;;;4.32;;
50319;SDS011;36226;53.464;9.852;2023-02-01T19:24:40;18.00;;;3.33;;
50319;SDS011;36226;53.464;9.852;2023-02-01T19:27:06;12.88;;;2.88;;
50319;SDS011;36226;53.464;9.852;2023-02-01T19:29:34;21.00;;;2.92;;
50319;SDS011;36226;53.464;9.852;2023-02-01T19:32:02;17.25;;;3.08;;
50319;SDS011;36226;53.464;9.852;2023-02-01T19:34:28;19.77;;;3.10;;
50319;SDS011;36226;53.464;9.852;2023-02-01T19:36:53;27.20;;;3.92;;
50319;SDS011;36226;53.464;9.852;2023-02-01T19:39:19;20.13;;;3.08;;
50319;SDS011;36226;53.464;9.852;2023-02-01T19:41:46;27.40;;;3.67;;
50319;SDS011;36226;53.464;9.852;2023-02-01T19:44:11;26.92;;;4.25;;
50319;SDS011;36226;53.464;9.852;2023-02-01T19:46:38;37.40;;;4.22;;
50319;SDS011;36226;53.464;9.852;2023-02-01T19:49:04;28.58;;;3.67;;
50319;SDS011;36226;53.464;9.852;2023-02-01T19:51:31;23.60;;;3.60;;
50319;SDS011;36226;53.464;9.852;2023-02-01T19:53:57;31.65;;;3.70;;
50319;SDS011;36226;53.464;9.852;2023-02-01T19:56:22;23.17;;;3.42;;
50319;SDS011;36226;53.464;9.852;2023-02-01T19:58:48;20.45;;;4.63;;
50319;SDS011;36226;53.464;9.852;2023-02-01T20:01:15;24.73;;;3.67;;
50319;SDS011;36226;53.464;9.852;2023-02-01T20:03:44;25.13;;;3.70;;
50319;SDS011;36226;53.464;9.852;2023-02-01T20:06:09;21.92;;;4.70;;
50319;SDS011;36226;53.464;9.852;2023-02-01T20:08:37;19.00;;;3.17;;
50319;SDS011;36226;53.464;9.852;2023-02-01T20:11:05;26.83;;;4.07;;
50319;SDS011;36226;53.464;9.852;2023-02-01T20:13:30;22.33;;;3.30;;
50319;SDS011;36226;53.464;9.852;2023-02-01T20:15:58;22.67;;;4.85;;
50319;SDS011;36226;53.464;9.852;2023-02-01T20:18:24;24.30;;;3.75;;
50319;SDS011;36226;53.464;9.852;2023-02-01T20:20:54;26.73;;;4.82;;
50319;SDS011;36226;53.464;9.852;2023-02-01T20:23:22;34.72;;;4.15;;
50319;SDS011;36226;53.464;9.852;2023-02-01T20:25:48;27.45;;;3.92;;
50319;SDS011;36226;53.464;9.852;2023-02-01T20:28:13;28.67;;;3.80;;
50319;SDS011;36226;53.464;9.852;2023-02-01T20:30:39;28.00;;;3.10;;
50319;SDS011;36226;53.464;9.852;2023-02-01T20:33:04;18.70;;;3.50;;
50319;SDS011;36226;53.464;9.852;2023-02-01T20:35:29;21.85;;;3.70;;
50319;SDS011;36226;53.464;9.852;2023-02-01T20:37:55;20.23;;;3.55;;
50319;SDS011;36226;53.464;9.852;2023-02-01T20:40:22;24.48;;;3.65;;
50319;SDS011;36226;53.464;9.852;2023-02-01T20:42:48;31.48;;;4.60;;
50319;SDS011;36226;53.464;9.852;2023-02-01T20:45:13;27.80;;;3.65;;
50319;SDS011;36226;53.464;9.852;2023-02-01T20:47:39;18.42;;;2.47;;
50319;SDS011;36226;53.464;9.852;2023-02-01T20:50:06;23.10;;;3.47;;
50319;SDS011;36226;53.464;9.852;2023-02-01T20:52:32;24.95;;;3.55;;
50319;SDS011;36226;53.464;9.852;2023-02-01T20:54:57;22.65;;;3.25;;
50319;SDS011;36226;53.464;9.852;2023-02-01T20:57:23;26.35;;;3.45;;
50319;SDS011;36226;53.464;9.852;2023-02-01T20:59:48;25.95;;;2.90;;
50319;SDS011;36226;53.464;9.852;2023-02-01T21:02:14;29.70;;;3.25;;
50319;SDS011;36226;53.464;9.852;2023-02-01T21:04:40;30.88;;;3.30;;
50319;SDS011;36226;53.464;9.852;2023-02-01T21:07:05;21.52;;;2.90;;
50319;SDS011;36226;53.464;9.852;2023-02-01T21:09:30;20.25;;;4.03;;
50319;SDS011;36226;53.464;9.852;2023-02-01T21:11:56;24.75;;;3.63;;
50319;SDS011;36226;53.464;9.852;2023-02-01T21:14:21;22.65;;;3.60;;
50319;SDS011;36226;53.464;9.852;2023-02-01T21:16:47;24.98;;;3.60;;
50319;SDS011;36226;53.464;9.852;2023-02-01T21:19:12;24.00;;;3.10;;
50319;SDS011;36226;53.464;9.852;2023-02-01T21:21:38;17.48;;;3.30;;
50319;SDS011;36226;53.464;9.852;2023-02-01T21:24:03;24.27;;;4.15;;
50319;SDS011;36226;53.464;9.852;2023-02-01T21:26:29;32.00;;;3.88;;
50319;SDS011;36226;53.464;9.852;2023-02-01T21:29:05;19.50;;;3.40;;
50319;SDS011;36226;53.464;9.852;2023-02-01T21:31:35;16.65;;;3.22;;
50319;SDS011;36226;53.464;9.852;2023-02-01T21:34:00;22.00;;;3.13;;
50319;SDS011;36226;53.464;9.852;2023-02-01T21:36:26;22.77;;;3.50;;
50319;SDS011;36226;53.464;9.852;2023-02-01T21:38:54;25.05;;;3.42;;
50319;SDS011;36226;53.464;9.852;2023-02-01T21:41:27;26.75;;;4.10;;
50319;SDS011;36226;53.464;9.852;2023-02-01T21:44:11;26.23;;;3.45;;
50319;SDS011;36226;53.464;9.852;2023-02-01T21:46:38;25.92;;;4.38;;
50319;SDS011;36226;53.464;9.852;2023-02-01T21:49:04;25.08;;;3.22;;
50319;SDS011;36226;53.464;9.852;2023-02-01T21:51:29;23.00;;;2.58;;
50319;SDS011;36226;53.464;9.852;2023-02-01T21:53:55;21.13;;;4.45;;
50319;SDS011;36226;53.464;9.852;2023-02-01T21:56:23;25.40;;;3.15;;
50319;SDS011;36226;53.464;9.852;2023-02-01T21:58:48;31.75;;;3.88;;
50319;SDS011;36226;53.464;9.852;2023-02-01T22:01:13;23.45;;;3.38;;
50319;SDS011;36226;53.464;9.852;2023-02-01T22:03:39;20.08;;;3.33;;
50319;SDS011;36226;53.464;9.852;2023-02-01T22:06:04;18.52;;;3.10;;
50319;SDS011;36226;53.464;9.852;2023-02-01T22:08:32;29.45;;;4.03;;
50319;SDS011;36226;53.464;9.852;2023-02-01T22:10:59;21.38;;;2.75;;
50319;SDS011;36226;53.464;9.852;2023-02-01T22:13:24;28.38;;;3.80;;
50319;SDS011;36226;53.464;9.852;2023-02-01T22:15:50;28.77;;;2.97;;
50319;SDS011;36226;53.464;9.852;2023-02-01T22:18:16;17.83;;;2.78;;
50319;SDS011;36226;53.464;9.852;2023-02-01T22:20:43;20.70;;;3.17;;
50319;SDS011;36226;53.464;9.852;2023-02-01T22:23:09;23.65;;;2.63;;
50319;SDS011;36226;53.464;9.852;2023-02-01T22:25:34;28.33;;;3.78;;
50319;SDS011;36226;53.464;9.852;2023-02-01T22:27:59;24.92;;;3.80;;
50319;SDS011;36226;53.464;9.852;2023-02-01T22:30:25;21.17;;;3.30;;
50319;SDS011;36226;53.464;9.852;2023-02-01T22:32:50;20.52;;;3.00;;
50319;SDS011;36226;53.464;9.852;2023-02-01T22:35:15;22.05;;;3.10;;
50319;SDS011;36226;53.464;9.852;2023-02-01T22:37:41;20.33;;;3.00;;
50319;SDS011;36226;53.464;9.852;2023-02-01T22:40:08;26.45;;;3.17;;
50319;SDS011;36226;53.464;9.852;2023-02-01T22:42:34;23.02;;;3.08;;
50319;SDS011;36226;53.464;9.852;2023-02-01T22:45:00;31.60;;;3.75;;
50319;SDS011;36226;53.464;9.852;2023-02-01T22:47:25;23.85;;;2.67;;
50319;SDS011;36226;53.464;9.852;2023-02-01T22:49:51;25.23;;;2.88;;
50319;SDS011;36226;53.464;9.852;2023-02-01T22:52:17;19.38;;;2.75;;
50319;SDS011;36226;53.464;9.852;2023-02-01T22:54:42;26.50;;;3.15;;
50319;SDS011;36226;53.464;9.852;2023-02-01T22:57:07;19.70;;;2.65;;
50319;SDS011;36226;53.464;9.852;2023-02-01T22:59:33;30.48;;;3.22;;
50319;SDS011;36226;53.464;9.852;2023-02-01T23:01:58;24.67;;;4.38;;
50319;SDS011;36226;53.464;9.852;2023-02-01T23:04:24;16.42;;;2.97;;
50319;SDS011;36226;53.464;9.852;2023-02-01T23:06:49;22.70;;;2.60;;
50319;SDS011;36226;53.464;9.852;2023-02-01T23:09:20;20.10;;;2.60;;
50319;SDS011;36226;53.464;9.852;2023-02-01T23:11:47;28.33;;;3.22;;
50319;SDS011;36226;53.464;9.852;2023-02-01T23:14:13;22.83;;;2.63;;
50319;SDS011;36226;53.464;9.852;2023-02-01T23:16:39;17.40;;;2.38;;
50319;SDS011;36226;53.464;9.852;2023-02-01T23:19:05;21.95;;;2.78;;
50319;SDS011;36226;53.464;9.852;2023-02-01T23:21:31;29.83;;;3.33;;
50319;SDS011;36226;53.464;9.852;2023-02-01T23:23:57;16.65;;;2.85;;
50319;SDS011;36226;53.464;9.852;2023-02-01T23:26:24;21.88;;;3.60;;
50319;SDS011;36226;53.464;9.852;2023-02-01T23:28:51;15.73;;;2.67;;
50319;SDS011;36226;53.464;9.852;2023-02-01T23:31:21;27.00;;;3.10;;
50319;SDS011;36226;53.464;9.852;2023-02-01T23:33:48;23.35;;;2.58;;
50319;SDS011;36226;53.464;9.852;2023-02-01T23:36:14;19.83;;;3.30;;
50319;SDS011;36226;53.464;9.852;2023-02-01T23:38:43;29.35;;;3.95;;
50319;SDS011;36226;53.464;9.852;2023-02-01T23:41:09;27.77;;;4.35;;
50319;SDS011;36226;53.464;9.852;2023-02-01T23:43:36;20.77;;;3.05;;
50319;SDS011;36226;53.464;9.852;2023-02-01T23:46:20;13.15;;;2.85;;
50319;SDS011;36226;53.464;9.852;2023-02-01T23:48:46;24.23;;;2.78;;
50319;SDS011;36226;53.464;9.852;2023-02-01T23:51:12;15.13;;;2.05;;
50319;SDS011;36226;53.464;9.852;2023-02-01T23:53:38;11.10;;;1.65;;
50319;SDS011;36226;53.464;9.852;2023-02-01T23:56:04;19.05;;;2.03;;
50319;SDS011;36226;53.464;9.852;2023-02-01T23:58:30;18.00;;;2.28;;
